»·PEaware :: N425KQ KHCR-67L

N425KQ :: KHCR-67L

FLIGHT INFORMATION

Flight Status: Arrived
Operator: Privately registered:
United States
More flights under this callsign
Pilot: Christian A. (580)
Aircraft: Unknown
(KODI)
More flights by this aircraft type
Origin: KHCR Heber Valley
United States
Destination: 67L Mesquite
United States
More flights between these airports :: More routes between these airports
Route: DTA MLF
File this flight plan on PilotEdge
Remarks:
Altitude:
(Current/Filed)
10,500ft
Speed:
(Current/Filed)
172kts
Departed: 21-Jul-18 06:50 PM
Arrived: 21-Jul-18 08:20 PM
Distance/Time
Traveled:
251nm/1:30
Distance/Time
To Go:
Arrived

Flight Plot

Page will automatically refresh every two minutes.

Flight plan parsing failed; only flown route is shown


Map Options




Map Legend


Flown Route
Filed Route
Departure Airport
Arrival Airport
Navaid (VOR, NDB)
Fix

Horizontal Profiles

Position Reports

Time Latitude Longitude Heading Altitude Ground
Speed
21-Jul-18 18:44 40.476132 -111.432174 318 5641ft 0kts
21-Jul-18 18:45 40.476132 -111.432174 318 5641ft 0kts
21-Jul-18 18:46 40.476132 -111.432174 318 5641ft 0kts
21-Jul-18 18:47 40.476132 -111.432174 318 5641ft 0kts
21-Jul-18 18:48 40.476251 -111.432471 238 5641ft 6kts
21-Jul-18 18:49 40.475627 -111.435918 229 5641ft 14kts
21-Jul-18 18:50 40.476210 -111.437474 48 5641ft 26kts
21-Jul-18 18:51 40.493888 -111.413459 6 6472ft 105kts
21-Jul-18 18:52 40.486036 -111.446546 231 7690ft 126kts
21-Jul-18 18:53 40.464273 -111.481306 228 8520ft 154kts
21-Jul-18 18:54 40.429839 -111.521570 220 8501ft 177kts
21-Jul-18 18:55 40.392111 -111.560953 218 8500ft 179kts
21-Jul-18 18:56 40.353913 -111.600227 216 8499ft 181kts
21-Jul-18 18:57 40.313771 -111.635683 213 8499ft 182kts
21-Jul-18 18:58 40.276928 -111.667969 212 8500ft 182kts
21-Jul-18 18:59 40.238050 -111.701910 213 8499ft 183kts
21-Jul-18 19:00 40.203243 -111.732298 213 8500ft 183kts
21-Jul-18 19:01 40.162259 -111.768046 212 8499ft 182kts
21-Jul-18 19:02 40.113825 -111.810173 213 8500ft 183kts
21-Jul-18 19:03 40.079239 -111.840212 212 8500ft 182kts
21-Jul-18 19:04 40.037480 -111.876474 212 8502ft 182kts
21-Jul-18 19:05 39.995647 -111.912694 213 8499ft 182kts
21-Jul-18 19:06 39.953702 -111.948974 213 8501ft 182kts
21-Jul-18 19:07 39.911798 -111.985184 213 8501ft 182kts
21-Jul-18 19:08 39.872205 -112.019344 212 8498ft 182kts
21-Jul-18 19:09 39.830037 -112.055657 213 8499ft 182kts
21-Jul-18 19:10 39.787875 -112.091909 213 8498ft 182kts
21-Jul-18 19:11 39.745886 -112.127965 213 8498ft 182kts
21-Jul-18 19:12 39.703596 -112.164252 213 8500ft 183kts
21-Jul-18 19:13 39.661376 -112.200401 212 8500ft 182kts
21-Jul-18 19:14 39.619248 -112.236403 212 8499ft 182kts
21-Jul-18 19:15 39.577127 -112.272330 212 8501ft 182kts
21-Jul-18 19:16 39.534824 -112.308415 213 8500ft 182kts
21-Jul-18 19:17 39.493340 -112.343695 213 8855ft 166kts
21-Jul-18 19:18 39.457970 -112.373700 213 9850ft 149kts
21-Jul-18 19:19 39.419293 -112.406547 214 9648ft 188kts
21-Jul-18 19:20 39.374288 -112.444757 213 8918ft 198kts
21-Jul-18 19:21 39.328883 -112.483201 212 8498ft 188kts
21-Jul-18 19:22 39.284314 -112.515226 202 8500ft 183kts
21-Jul-18 19:23 39.237782 -112.540907 203 8500ft 182kts
21-Jul-18 19:24 39.191023 -112.566422 202 8500ft 182kts
21-Jul-18 19:25 39.144423 -112.591815 202 8501ft 182kts
21-Jul-18 19:26 39.097572 -112.617285 201 8501ft 183kts
21-Jul-18 19:27 39.051347 -112.642368 202 8501ft 182kts
21-Jul-18 19:28 39.018787 -112.659989 202 8545ft 178kts
21-Jul-18 19:29 38.978810 -112.681595 204 9556ft 144kts
21-Jul-18 19:30 38.943431 -112.700746 204 10580ft 136kts
21-Jul-18 19:31 38.904485 -112.721863 204 10733ft 170kts
21-Jul-18 19:32 38.860670 -112.745530 204 10498ft 180kts
21-Jul-18 19:33 38.814900 -112.770197 204 10499ft 178kts
21-Jul-18 19:34 38.769301 -112.794742 204 10499ft 178kts
21-Jul-18 19:35 38.723800 -112.819198 204 10500ft 177kts
21-Jul-18 19:36 38.678404 -112.843571 204 10500ft 176kts
21-Jul-18 19:37 38.633382 -112.867712 204 10500ft 175kts
21-Jul-18 19:38 38.588701 -112.891637 204 10500ft 174kts
21-Jul-18 19:39 38.544190 -112.915438 203 10500ft 173kts
21-Jul-18 19:40 38.499908 -112.939084 203 10500ft 172kts
21-Jul-18 19:41 38.455806 -112.962602 203 10500ft 172kts
21-Jul-18 19:42 38.411926 -112.985970 203 10500ft 171kts
21-Jul-18 19:43 38.367876 -113.009396 202 10500ft 171kts
21-Jul-18 19:44 38.326053 -113.037430 208 10500ft 171kts
21-Jul-18 19:45 38.284261 -113.066533 208 10500ft 171kts
21-Jul-18 19:46 38.242636 -113.095533 208 10500ft 171kts
21-Jul-18 19:47 38.200809 -113.124643 208 10503ft 171kts
21-Jul-18 19:48 38.159061 -113.153662 208 10509ft 171kts
21-Jul-18 19:49 38.117352 -113.182615 208 10519ft 171kts
21-Jul-18 19:50 38.075689 -113.211499 208 10531ft 171kts
21-Jul-18 19:51 38.034175 -113.240243 208 10539ft 171kts
21-Jul-18 19:52 37.992493 -113.269066 208 10544ft 171kts
21-Jul-18 19:53 37.950813 -113.297849 208 10545ft 171kts
21-Jul-18 19:54 37.909740 -113.326176 208 10545ft 171kts
21-Jul-18 19:55 37.870711 -113.353059 208 10545ft 171kts
21-Jul-18 19:56 37.829062 -113.381711 208 10545ft 171kts
21-Jul-18 19:57 37.787227 -113.410453 208 10545ft 171kts
21-Jul-18 19:58 37.745486 -113.439095 208 10545ft 171kts
21-Jul-18 19:59 37.704002 -113.467523 208 10545ft 171kts
21-Jul-18 20:00 37.662144 -113.496170 208 10545ft 171kts
21-Jul-18 20:01 37.620393 -113.524708 208 10545ft 171kts
21-Jul-18 20:02 37.578687 -113.553182 208 10510ft 172kts
21-Jul-18 20:03 37.536673 -113.581826 208 10456ft 172kts
21-Jul-18 20:04 37.494894 -113.610273 208 10414ft 171kts
21-Jul-18 20:05 37.452877 -113.638845 208 10382ft 171kts
21-Jul-18 20:06 37.413042 -113.665896 207 10372ft 170kts
21-Jul-18 20:07 37.371401 -113.694140 207 10372ft 170kts
21-Jul-18 20:08 37.329666 -113.722413 207 10372ft 170kts
21-Jul-18 20:09 37.288093 -113.750540 207 10372ft 170kts
21-Jul-18 20:10 37.246494 -113.778600 207 10372ft 170kts
21-Jul-18 20:11 37.204696 -113.806777 207 10371ft 170kts
21-Jul-18 20:12 37.163038 -113.834856 208 10358ft 171kts
21-Jul-18 20:13 37.119885 -113.863904 208 9522ft 179kts
21-Jul-18 20:14 37.076524 -113.892614 206 8677ft 174kts
21-Jul-18 20:15 37.033507 -113.919621 206 7804ft 173kts
21-Jul-18 20:16 36.990855 -113.947587 206 6639ft 174kts
21-Jul-18 20:17 36.949755 -113.974835 206 5423ft 166kts
21-Jul-18 20:18 36.911410 -114.000158 208 3733ft 150kts
21-Jul-18 20:19 36.879078 -114.023680 208 2604ft 134kts
21-Jul-18 20:20 36.849260 -114.044524 209 2238ft 102kts
21-Jul-18 20:21 36.834664 -114.054865 227 1979ft 7kts
21-Jul-18 20:22 36.833658 -114.057057 299 1979ft 0kts
21-Jul-18 20:23 36.833658 -114.057058 299 1980ft 0kts
21-Jul-18 20:24 36.833658 -114.057058 299 1980ft 0kts
21-Jul-18 20:25 36.833658 -114.057058 299 1980ft 0kts
21-Jul-18 20:26 36.833658 -114.057058 299 1980ft 0kts
21-Jul-18 20:27 36.833030 -114.057983 302 1980ft 0kts
21-Jul-18 20:28 36.833030 -114.057983 302 1980ft 0kts

Navigation Log

Ident Type
Flight plan parsing failed, navigation log unavailable